Milton, Washington
Current Conditions -  °F | °C
As of 11:58 PM on Monday 20 Oct 2014 (Local Time) from KTCM Reporting Station
Few Clouds Few Clouds  
Wind Chill: 52°   Ceiling: Unl
Heat Index: 52°   Visibility: 10mi
Dew Point: 52°   Wind: 2mph
Humidity: 99%   Direction: 120°ESE
Pressure: 29.81"   Gusts: NA
Location:  47.25°N, 122.31°W
Report Text: KTCM 210658Z AUTO 12002KT 10SM FEW065 11/11 A2981 RMK AO2 SLP098 T01110109 $
Loading
Personal Weather Stations






























Interactive Weather Map
Tropical Storm Tracking
New forecast layout! Learn more

10-Day Weather Forecast

Advertisements
Track Severe Weather on mobile